sensor_id;sensor_type;location;lat;lon;timestamp;P1;durP1;ratioP1;P2;durP2;ratioP2
19810;SDS011;10065;49.632;8.346;2023-02-01T00:00:46;6.37;;;2.50;;
19810;SDS011;10065;49.632;8.346;2023-02-01T00:03:14;4.53;;;2.50;;
19810;SDS011;10065;49.632;8.346;2023-02-01T00:05:42;8.33;;;2.60;;
19810;SDS011;10065;49.632;8.346;2023-02-01T00:08:09;4.77;;;2.50;;
19810;SDS011;10065;49.632;8.346;2023-02-01T00:10:38;5.77;;;2.70;;
19810;SDS011;10065;49.632;8.346;2023-02-01T00:13:06;5.30;;;2.40;;
19810;SDS011;10065;49.632;8.346;2023-02-01T00:15:34;7.53;;;2.83;;
19810;SDS011;10065;49.632;8.346;2023-02-01T00:18:02;5.23;;;2.80;;
19810;SDS011;10065;49.632;8.346;2023-02-01T00:20:30;6.37;;;2.73;;
19810;SDS011;10065;49.632;8.346;2023-02-01T00:22:57;6.40;;;2.70;;
19810;SDS011;10065;49.632;8.346;2023-02-01T00:25:25;7.43;;;2.43;;
19810;SDS011;10065;49.632;8.346;2023-02-01T00:27:54;3.87;;;2.50;;
19810;SDS011;10065;49.632;8.346;2023-02-01T00:30:25;4.13;;;2.53;;
19810;SDS011;10065;49.632;8.346;2023-02-01T00:32:52;5.47;;;2.50;;
19810;SDS011;10065;49.632;8.346;2023-02-01T00:35:20;5.83;;;2.70;;
19810;SDS011;10065;49.632;8.346;2023-02-01T00:37:48;6.67;;;3.00;;
19810;SDS011;10065;49.632;8.346;2023-02-01T00:40:16;8.07;;;2.80;;
19810;SDS011;10065;49.632;8.346;2023-02-01T00:42:44;6.57;;;2.80;;
19810;SDS011;10065;49.632;8.346;2023-02-01T00:45:13;7.17;;;2.97;;
19810;SDS011;10065;49.632;8.346;2023-02-01T00:47:41;5.67;;;2.50;;
19810;SDS011;10065;49.632;8.346;2023-02-01T00:50:09;9.27;;;2.70;;
19810;SDS011;10065;49.632;8.346;2023-02-01T00:52:37;5.53;;;3.00;;
19810;SDS011;10065;49.632;8.346;2023-02-01T00:55:05;6.43;;;3.00;;
19810;SDS011;10065;49.632;8.346;2023-02-01T00:57:33;4.57;;;2.40;;
19810;SDS011;10065;49.632;8.346;2023-02-01T01:00:01;4.77;;;2.67;;
19810;SDS011;10065;49.632;8.346;2023-02-01T01:02:30;4.77;;;2.60;;
19810;SDS011;10065;49.632;8.346;2023-02-01T01:04:58;5.73;;;2.83;;
19810;SDS011;10065;49.632;8.346;2023-02-01T01:07:27;7.40;;;2.50;;
19810;SDS011;10065;49.632;8.346;2023-02-01T01:09:54;5.80;;;2.67;;
19810;SDS011;10065;49.632;8.346;2023-02-01T01:12:22;5.00;;;2.80;;
19810;SDS011;10065;49.632;8.346;2023-02-01T01:14:50;6.70;;;3.00;;
19810;SDS011;10065;49.632;8.346;2023-02-01T01:17:18;4.70;;;2.80;;
19810;SDS011;10065;49.632;8.346;2023-02-01T01:19:47;4.40;;;2.40;;
19810;SDS011;10065;49.632;8.346;2023-02-01T01:22:14;4.53;;;2.43;;
19810;SDS011;10065;49.632;8.346;2023-02-01T01:24:42;5.10;;;2.60;;
19810;SDS011;10065;49.632;8.346;2023-02-01T01:27:10;5.73;;;2.60;;
19810;SDS011;10065;49.632;8.346;2023-02-01T01:29:38;8.27;;;2.37;;
19810;SDS011;10065;49.632;8.346;2023-02-01T01:32:05;8.20;;;2.37;;
19810;SDS011;10065;49.632;8.346;2023-02-01T01:34:33;6.43;;;2.30;;
19810;SDS011;10065;49.632;8.346;2023-02-01T01:37:02;4.73;;;2.90;;
19810;SDS011;10065;49.632;8.346;2023-02-01T01:39:30;8.90;;;3.00;;
19810;SDS011;10065;49.632;8.346;2023-02-01T01:41:58;9.43;;;2.30;;
19810;SDS011;10065;49.632;8.346;2023-02-01T01:47:28;5.50;;;2.60;;
19810;SDS011;10065;49.632;8.346;2023-02-01T01:50:01;6.73;;;2.80;;
19810;SDS011;10065;49.632;8.346;2023-02-01T01:52:30;6.07;;;2.60;;
19810;SDS011;10065;49.632;8.346;2023-02-01T01:54:59;5.33;;;2.90;;
19810;SDS011;10065;49.632;8.346;2023-02-01T01:57:27;4.70;;;2.30;;
19810;SDS011;10065;49.632;8.346;2023-02-01T02:00:00;7.07;;;2.67;;
19810;SDS011;10065;49.632;8.346;2023-02-01T02:02:33;4.30;;;2.10;;
19810;SDS011;10065;49.632;8.346;2023-02-01T02:05:02;4.90;;;2.40;;
19810;SDS011;10065;49.632;8.346;2023-02-01T02:07:34;5.93;;;2.47;;
19810;SDS011;10065;49.632;8.346;2023-02-01T02:10:04;6.43;;;2.50;;
19810;SDS011;10065;49.632;8.346;2023-02-01T02:12:33;5.03;;;2.90;;
19810;SDS011;10065;49.632;8.346;2023-02-01T02:15:00;6.17;;;2.60;;
19810;SDS011;10065;49.632;8.346;2023-02-01T02:17:32;6.80;;;2.30;;
19810;SDS011;10065;49.632;8.346;2023-02-01T02:26:02;6.33;;;2.83;;
19810;SDS011;10065;49.632;8.346;2023-02-01T02:29:03;5.40;;;2.70;;
19810;SDS011;10065;49.632;8.346;2023-02-01T02:31:54;6.57;;;2.60;;
19810;SDS011;10065;49.632;8.346;2023-02-01T02:34:36;6.17;;;2.90;;
19810;SDS011;10065;49.632;8.346;2023-02-01T02:37:09;4.27;;;2.43;;
19810;SDS011;10065;49.632;8.346;2023-02-01T02:39:50;8.53;;;3.80;;
19810;SDS011;10065;49.632;8.346;2023-02-01T02:42:27;6.33;;;3.03;;
19810;SDS011;10065;49.632;8.346;2023-02-01T02:45:18;9.47;;;3.70;;
19810;SDS011;10065;49.632;8.346;2023-02-01T02:48:08;5.73;;;3.40;;
19810;SDS011;10065;49.632;8.346;2023-02-01T02:50:42;8.47;;;3.90;;
19810;SDS011;10065;49.632;8.346;2023-02-01T02:53:32;6.93;;;3.70;;
19810;SDS011;10065;49.632;8.346;2023-02-01T02:56:22;10.47;;;4.07;;
19810;SDS011;10065;49.632;8.346;2023-02-01T02:59:09;10.77;;;4.50;;
19810;SDS011;10065;49.632;8.346;2023-02-01T03:01:59;5.93;;;3.60;;
19810;SDS011;10065;49.632;8.346;2023-02-01T03:04:44;6.33;;;3.50;;
19810;SDS011;10065;49.632;8.346;2023-02-01T03:07:15;9.90;;;4.00;;
19810;SDS011;10065;49.632;8.346;2023-02-01T03:10:03;9.17;;;3.83;;
19810;SDS011;10065;49.632;8.346;2023-02-01T03:12:36;9.57;;;4.07;;
19810;SDS011;10065;49.632;8.346;2023-02-01T03:15:23;8.20;;;3.70;;
19810;SDS011;10065;49.632;8.346;2023-02-01T03:17:57;10.30;;;3.87;;
19810;SDS011;10065;49.632;8.346;2023-02-01T03:20:27;8.33;;;3.67;;
19810;SDS011;10065;49.632;8.346;2023-02-01T03:22:58;6.80;;;3.53;;
19810;SDS011;10065;49.632;8.346;2023-02-01T03:25:27;6.67;;;3.40;;
19810;SDS011;10065;49.632;8.346;2023-02-01T03:27:58;7.83;;;3.20;;
19810;SDS011;10065;49.632;8.346;2023-02-01T03:30:31;7.13;;;3.43;;
19810;SDS011;10065;49.632;8.346;2023-02-01T03:33:02;8.20;;;3.30;;
19810;SDS011;10065;49.632;8.346;2023-02-01T03:35:41;8.27;;;3.60;;
19810;SDS011;10065;49.632;8.346;2023-02-01T03:38:18;8.50;;;3.90;;
19810;SDS011;10065;49.632;8.346;2023-02-01T03:40:52;11.33;;;3.70;;
19810;SDS011;10065;49.632;8.346;2023-02-01T03:43:24;9.60;;;4.10;;
19810;SDS011;10065;49.632;8.346;2023-02-01T03:45:58;6.63;;;3.70;;
19810;SDS011;10065;49.632;8.346;2023-02-01T03:48:28;10.43;;;3.80;;
19810;SDS011;10065;49.632;8.346;2023-02-01T03:50:58;12.67;;;4.20;;
19810;SDS011;10065;49.632;8.346;2023-02-01T03:53:31;8.10;;;3.50;;
19810;SDS011;10065;49.632;8.346;2023-02-01T03:56:03;9.50;;;4.13;;
19810;SDS011;10065;49.632;8.346;2023-02-01T03:58:32;8.40;;;3.60;;
19810;SDS011;10065;49.632;8.346;2023-02-01T04:01:00;11.90;;;3.70;;
19810;SDS011;10065;49.632;8.346;2023-02-01T04:03:28;11.17;;;4.63;;
19810;SDS011;10065;49.632;8.346;2023-02-01T04:05:56;9.97;;;4.07;;
19810;SDS011;10065;49.632;8.346;2023-02-01T04:08:24;6.40;;;3.70;;
19810;SDS011;10065;49.632;8.346;2023-02-01T04:10:53;8.27;;;4.03;;
19810;SDS011;10065;49.632;8.346;2023-02-01T04:13:21;10.63;;;4.17;;
19810;SDS011;10065;49.632;8.346;2023-02-01T04:15:48;8.60;;;4.23;;
19810;SDS011;10065;49.632;8.346;2023-02-01T04:18:16;9.17;;;3.97;;
19810;SDS011;10065;49.632;8.346;2023-02-01T04:20:44;10.20;;;4.53;;
19810;SDS011;10065;49.632;8.346;2023-02-01T04:23:12;8.03;;;4.07;;
19810;SDS011;10065;49.632;8.346;2023-02-01T04:25:42;8.70;;;4.67;;
19810;SDS011;10065;49.632;8.346;2023-02-01T04:28:11;9.33;;;4.23;;
19810;SDS011;10065;49.632;8.346;2023-02-01T04:30:38;11.23;;;4.50;;
19810;SDS011;10065;49.632;8.346;2023-02-01T04:33:06;10.87;;;4.70;;
19810;SDS011;10065;49.632;8.346;2023-02-01T04:35:34;9.50;;;4.63;;
19810;SDS011;10065;49.632;8.346;2023-02-01T04:38:02;9.63;;;4.47;;
19810;SDS011;10065;49.632;8.346;2023-02-01T04:40:29;15.63;;;4.90;;
19810;SDS011;10065;49.632;8.346;2023-02-01T04:42:57;13.03;;;4.07;;
19810;SDS011;10065;49.632;8.346;2023-02-01T04:45:26;8.77;;;4.13;;
19810;SDS011;10065;49.632;8.346;2023-02-01T04:47:54;9.53;;;4.37;;
19810;SDS011;10065;49.632;8.346;2023-02-01T04:50:22;8.77;;;4.20;;
19810;SDS011;10065;49.632;8.346;2023-02-01T04:52:50;9.60;;;4.77;;
19810;SDS011;10065;49.632;8.346;2023-02-01T04:55:18;8.07;;;3.53;;
19810;SDS011;10065;49.632;8.346;2023-02-01T04:57:45;11.70;;;4.27;;
19810;SDS011;10065;49.632;8.346;2023-02-01T05:00:13;9.90;;;4.37;;
19810;SDS011;10065;49.632;8.346;2023-02-01T05:02:45;9.23;;;3.80;;
19810;SDS011;10065;49.632;8.346;2023-02-01T05:05:13;9.23;;;3.57;;
19810;SDS011;10065;49.632;8.346;2023-02-01T05:07:40;10.87;;;3.53;;
19810;SDS011;10065;49.632;8.346;2023-02-01T05:10:09;11.20;;;3.80;;
19810;SDS011;10065;49.632;8.346;2023-02-01T05:12:37;10.57;;;3.27;;
19810;SDS011;10065;49.632;8.346;2023-02-01T05:15:37;7.17;;;3.07;;
19810;SDS011;10065;49.632;8.346;2023-02-01T05:18:06;7.20;;;3.10;;
19810;SDS011;10065;49.632;8.346;2023-02-01T05:20:33;9.27;;;3.20;;
19810;SDS011;10065;49.632;8.346;2023-02-01T05:23:01;10.57;;;3.23;;
19810;SDS011;10065;49.632;8.346;2023-02-01T05:25:29;6.47;;;2.80;;
19810;SDS011;10065;49.632;8.346;2023-02-01T05:27:57;5.57;;;2.70;;
19810;SDS011;10065;49.632;8.346;2023-02-01T05:30:24;6.70;;;2.73;;
19810;SDS011;10065;49.632;8.346;2023-02-01T05:32:52;8.33;;;3.07;;
19810;SDS011;10065;49.632;8.346;2023-02-01T05:35:22;6.63;;;3.17;;
19810;SDS011;10065;49.632;8.346;2023-02-01T05:37:49;6.33;;;2.97;;
19810;SDS011;10065;49.632;8.346;2023-02-01T05:40:17;7.97;;;3.10;;
19810;SDS011;10065;49.632;8.346;2023-02-01T05:42:45;8.50;;;3.13;;
19810;SDS011;10065;49.632;8.346;2023-02-01T05:45:13;8.57;;;3.57;;
19810;SDS011;10065;49.632;8.346;2023-02-01T05:47:41;7.90;;;3.70;;
19810;SDS011;10065;49.632;8.346;2023-02-01T05:50:09;8.20;;;3.50;;
19810;SDS011;10065;49.632;8.346;2023-02-01T05:52:38;7.67;;;3.90;;
19810;SDS011;10065;49.632;8.346;2023-02-01T05:55:06;8.07;;;3.80;;
19810;SDS011;10065;49.632;8.346;2023-02-01T05:57:34;10.47;;;3.70;;
19810;SDS011;10065;49.632;8.346;2023-02-01T06:00:02;10.97;;;3.60;;
19810;SDS011;10065;49.632;8.346;2023-02-01T06:02:31;11.57;;;4.30;;
19810;SDS011;10065;49.632;8.346;2023-02-01T06:04:58;9.40;;;4.17;;
19810;SDS011;10065;49.632;8.346;2023-02-01T06:07:26;6.80;;;3.50;;
19810;SDS011;10065;49.632;8.346;2023-02-01T06:09:56;10.37;;;3.97;;
19810;SDS011;10065;49.632;8.346;2023-02-01T06:12:24;8.50;;;4.00;;
19810;SDS011;10065;49.632;8.346;2023-02-01T06:14:54;10.07;;;4.00;;
19810;SDS011;10065;49.632;8.346;2023-02-01T06:17:22;10.50;;;4.00;;
19810;SDS011;10065;49.632;8.346;2023-02-01T06:19:49;11.07;;;4.70;;
19810;SDS011;10065;49.632;8.346;2023-02-01T06:22:17;13.53;;;4.40;;
19810;SDS011;10065;49.632;8.346;2023-02-01T06:24:45;9.07;;;4.20;;
19810;SDS011;10065;49.632;8.346;2023-02-01T06:27:14;10.83;;;4.00;;
19810;SDS011;10065;49.632;8.346;2023-02-01T06:29:41;6.60;;;3.87;;
19810;SDS011;10065;49.632;8.346;2023-02-01T06:32:09;10.23;;;4.23;;
19810;SDS011;10065;49.632;8.346;2023-02-01T06:34:37;9.23;;;4.00;;
19810;SDS011;10065;49.632;8.346;2023-02-01T06:37:05;8.50;;;3.60;;
19810;SDS011;10065;49.632;8.346;2023-02-01T06:39:33;11.00;;;3.47;;
19810;SDS011;10065;49.632;8.346;2023-02-01T06:42:01;7.67;;;3.53;;
19810;SDS011;10065;49.632;8.346;2023-02-01T06:44:31;10.20;;;3.70;;
19810;SDS011;10065;49.632;8.346;2023-02-01T06:46:59;13.00;;;4.20;;
19810;SDS011;10065;49.632;8.346;2023-02-01T06:49:27;14.20;;;4.20;;
19810;SDS011;10065;49.632;8.346;2023-02-01T06:51:54;9.53;;;4.20;;
19810;SDS011;10065;49.632;8.346;2023-02-01T06:54:22;11.93;;;4.13;;
19810;SDS011;10065;49.632;8.346;2023-02-01T06:56:50;10.83;;;3.80;;
19810;SDS011;10065;49.632;8.346;2023-02-01T06:59:18;11.97;;;4.50;;
19810;SDS011;10065;49.632;8.346;2023-02-01T07:01:47;12.60;;;3.77;;
19810;SDS011;10065;49.632;8.346;2023-02-01T07:04:15;10.77;;;3.40;;
19810;SDS011;10065;49.632;8.346;2023-02-01T07:06:42;12.87;;;3.57;;
19810;SDS011;10065;49.632;8.346;2023-02-01T07:09:10;11.97;;;3.73;;
19810;SDS011;10065;49.632;8.346;2023-02-01T07:11:39;10.77;;;3.30;;
19810;SDS011;10065;49.632;8.346;2023-02-01T07:14:09;11.07;;;3.33;;
19810;SDS011;10065;49.632;8.346;2023-02-01T07:16:37;11.30;;;3.53;;
19810;SDS011;10065;49.632;8.346;2023-02-01T07:19:06;10.87;;;3.33;;
19810;SDS011;10065;49.632;8.346;2023-02-01T07:21:34;10.80;;;4.40;;
19810;SDS011;10065;49.632;8.346;2023-02-01T07:24:02;9.13;;;3.93;;
19810;SDS011;10065;49.632;8.346;2023-02-01T07:26:30;11.87;;;3.33;;
19810;SDS011;10065;49.632;8.346;2023-02-01T07:28:58;12.30;;;4.10;;
19810;SDS011;10065;49.632;8.346;2023-02-01T07:31:26;15.30;;;3.73;;
19810;SDS011;10065;49.632;8.346;2023-02-01T07:33:55;10.93;;;3.60;;
19810;SDS011;10065;49.632;8.346;2023-02-01T07:36:25;14.67;;;3.73;;
19810;SDS011;10065;49.632;8.346;2023-02-01T07:38:53;9.60;;;3.47;;
19810;SDS011;10065;49.632;8.346;2023-02-01T07:41:22;15.60;;;3.83;;
19810;SDS011;10065;49.632;8.346;2023-02-01T07:43:51;14.47;;;3.53;;
19810;SDS011;10065;49.632;8.346;2023-02-01T07:46:19;14.07;;;4.80;;
19810;SDS011;10065;49.632;8.346;2023-02-01T07:48:47;10.43;;;2.97;;
19810;SDS011;10065;49.632;8.346;2023-02-01T07:51:16;10.53;;;3.03;;
19810;SDS011;10065;49.632;8.346;2023-02-01T07:53:45;10.17;;;3.30;;
19810;SDS011;10065;49.632;8.346;2023-02-01T07:56:14;14.37;;;3.10;;
19810;SDS011;10065;49.632;8.346;2023-02-01T07:58:43;9.30;;;3.33;;
19810;SDS011;10065;49.632;8.346;2023-02-01T08:01:15;13.43;;;3.73;;
19810;SDS011;10065;49.632;8.346;2023-02-01T08:03:51;14.40;;;3.27;;
19810;SDS011;10065;49.632;8.346;2023-02-01T08:06:21;9.53;;;3.20;;
19810;SDS011;10065;49.632;8.346;2023-02-01T08:08:51;15.57;;;3.70;;
19810;SDS011;10065;49.632;8.346;2023-02-01T08:11:20;15.37;;;4.20;;
19810;SDS011;10065;49.632;8.346;2023-02-01T08:13:49;11.73;;;3.10;;
19810;SDS011;10065;49.632;8.346;2023-02-01T08:16:18;15.83;;;3.73;;
19810;SDS011;10065;49.632;8.346;2023-02-01T08:18:47;11.87;;;3.80;;
19810;SDS011;10065;49.632;8.346;2023-02-01T08:21:15;13.03;;;3.50;;
19810;SDS011;10065;49.632;8.346;2023-02-01T08:23:45;10.77;;;3.73;;
19810;SDS011;10065;49.632;8.346;2023-02-01T08:26:15;12.07;;;4.20;;
19810;SDS011;10065;49.632;8.346;2023-02-01T08:28:45;13.80;;;4.40;;
19810;SDS011;10065;49.632;8.346;2023-02-01T08:31:18;9.17;;;3.77;;
19810;SDS011;10065;49.632;8.346;2023-02-01T08:33:48;14.23;;;3.60;;
19810;SDS011;10065;49.632;8.346;2023-02-01T08:36:17;17.90;;;4.83;;
19810;SDS011;10065;49.632;8.346;2023-02-01T08:38:46;16.40;;;4.50;;
19810;SDS011;10065;49.632;8.346;2023-02-01T08:41:16;9.50;;;4.23;;
19810;SDS011;10065;49.632;8.346;2023-02-01T08:43:46;11.87;;;4.07;;
19810;SDS011;10065;49.632;8.346;2023-02-01T08:46:14;13.20;;;3.90;;
19810;SDS011;10065;49.632;8.346;2023-02-01T08:48:42;14.00;;;4.27;;
19810;SDS011;10065;49.632;8.346;2023-02-01T08:51:11;8.80;;;3.60;;
19810;SDS011;10065;49.632;8.346;2023-02-01T08:53:41;17.07;;;4.00;;
19810;SDS011;10065;49.632;8.346;2023-02-01T08:56:09;13.37;;;4.57;;
19810;SDS011;10065;49.632;8.346;2023-02-01T08:58:39;15.33;;;3.87;;
19810;SDS011;10065;49.632;8.346;2023-02-01T09:01:08;14.50;;;4.10;;
19810;SDS011;10065;49.632;8.346;2023-02-01T09:03:38;11.10;;;3.60;;
19810;SDS011;10065;49.632;8.346;2023-02-01T09:06:07;18.70;;;4.43;;
19810;SDS011;10065;49.632;8.346;2023-02-01T09:08:37;16.03;;;4.03;;
19810;SDS011;10065;49.632;8.346;2023-02-01T09:11:06;14.57;;;4.33;;
19810;SDS011;10065;49.632;8.346;2023-02-01T09:13:40;15.87;;;3.37;;
19810;SDS011;10065;49.632;8.346;2023-02-01T09:16:08;7.73;;;3.17;;
19810;SDS011;10065;49.632;8.346;2023-02-01T09:18:36;14.43;;;3.70;;
19810;SDS011;10065;49.632;8.346;2023-02-01T09:21:24;10.43;;;3.70;;
19810;SDS011;10065;49.632;8.346;2023-02-01T09:23:52;11.87;;;3.57;;
19810;SDS011;10065;49.632;8.346;2023-02-01T09:26:21;11.67;;;2.50;;
19810;SDS011;10065;49.632;8.346;2023-02-01T09:28:58;10.97;;;2.57;;
19810;SDS011;10065;49.632;8.346;2023-02-01T09:31:26;6.77;;;2.90;;
19810;SDS011;10065;49.632;8.346;2023-02-01T09:33:54;11.40;;;2.67;;
19810;SDS011;10065;49.632;8.346;2023-02-01T09:36:22;11.00;;;2.60;;
19810;SDS011;10065;49.632;8.346;2023-02-01T09:38:50;14.37;;;3.40;;
19810;SDS011;10065;49.632;8.346;2023-02-01T09:41:25;12.37;;;2.57;;
19810;SDS011;10065;49.632;8.346;2023-02-01T09:44:07;14.03;;;2.80;;
19810;SDS011;10065;49.632;8.346;2023-02-01T09:46:40;11.70;;;3.67;;
19810;SDS011;10065;49.632;8.346;2023-02-01T09:49:10;12.97;;;2.73;;
19810;SDS011;10065;49.632;8.346;2023-02-01T09:51:42;15.53;;;2.70;;
19810;SDS011;10065;49.632;8.346;2023-02-01T09:54:13;16.10;;;2.87;;
19810;SDS011;10065;49.632;8.346;2023-02-01T09:56:45;12.57;;;2.23;;
19810;SDS011;10065;49.632;8.346;2023-02-01T09:59:23;15.80;;;1.80;;
19810;SDS011;10065;49.632;8.346;2023-02-01T10:01:58;15.30;;;2.07;;
19810;SDS011;10065;49.632;8.346;2023-02-01T10:04:26;7.50;;;2.10;;
19810;SDS011;10065;49.632;8.346;2023-02-01T10:06:57;7.77;;;2.00;;
19810;SDS011;10065;49.632;8.346;2023-02-01T10:09:42;8.40;;;2.13;;
19810;SDS011;10065;49.632;8.346;2023-02-01T10:12:33;12.53;;;2.00;;
19810;SDS011;10065;49.632;8.346;2023-02-01T10:15:21;15.77;;;2.50;;
19810;SDS011;10065;49.632;8.346;2023-02-01T10:18:00;14.33;;;2.40;;
19810;SDS011;10065;49.632;8.346;2023-02-01T10:20:41;9.20;;;2.20;;
19810;SDS011;10065;49.632;8.346;2023-02-01T10:23:25;10.03;;;2.20;;
19810;SDS011;10065;49.632;8.346;2023-02-01T10:26:17;11.13;;;2.17;;
19810;SDS011;10065;49.632;8.346;2023-02-01T10:28:48;10.70;;;2.20;;
19810;SDS011;10065;49.632;8.346;2023-02-01T10:31:19;16.27;;;2.40;;
19810;SDS011;10065;49.632;8.346;2023-02-01T10:33:51;15.30;;;2.80;;
19810;SDS011;10065;49.632;8.346;2023-02-01T10:36:25;9.10;;;2.27;;
19810;SDS011;10065;49.632;8.346;2023-02-01T10:38:58;11.10;;;2.73;;
19810;SDS011;10065;49.632;8.346;2023-02-01T10:41:29;11.83;;;2.17;;
19810;SDS011;10065;49.632;8.346;2023-02-01T10:43:59;7.63;;;2.10;;
19810;SDS011;10065;49.632;8.346;2023-02-01T10:46:33;12.63;;;2.13;;
19810;SDS011;10065;49.632;8.346;2023-02-01T10:49:02;13.97;;;2.63;;
19810;SDS011;10065;49.632;8.346;2023-02-01T10:51:36;14.00;;;2.33;;
19810;SDS011;10065;49.632;8.346;2023-02-01T10:54:11;12.13;;;2.27;;
19810;SDS011;10065;49.632;8.346;2023-02-01T10:56:43;19.23;;;2.90;;
19810;SDS011;10065;49.632;8.346;2023-02-01T10:59:14;7.20;;;1.73;;
19810;SDS011;10065;49.632;8.346;2023-02-01T11:01:46;13.63;;;2.47;;
19810;SDS011;10065;49.632;8.346;2023-02-01T11:04:16;8.83;;;2.07;;
19810;SDS011;10065;49.632;8.346;2023-02-01T11:06:46;11.87;;;2.07;;
19810;SDS011;10065;49.632;8.346;2023-02-01T11:09:16;11.60;;;2.67;;
19810;SDS011;10065;49.632;8.346;2023-02-01T11:11:55;10.93;;;2.60;;
19810;SDS011;10065;49.632;8.346;2023-02-01T11:14:31;11.97;;;2.70;;
19810;SDS011;10065;49.632;8.346;2023-02-01T11:17:16;10.63;;;2.30;;
19810;SDS011;10065;49.632;8.346;2023-02-01T11:19:55;8.07;;;1.97;;
19810;SDS011;10065;49.632;8.346;2023-02-01T11:22:25;9.37;;;2.33;;
19810;SDS011;10065;49.632;8.346;2023-02-01T11:24:55;17.37;;;2.73;;
19810;SDS011;10065;49.632;8.346;2023-02-01T11:27:23;14.40;;;2.87;;
19810;SDS011;10065;49.632;8.346;2023-02-01T11:29:55;19.43;;;2.87;;
19810;SDS011;10065;49.632;8.346;2023-02-01T11:32:28;17.07;;;2.43;;
19810;SDS011;10065;49.632;8.346;2023-02-01T11:34:57;12.00;;;2.03;;
19810;SDS011;10065;49.632;8.346;2023-02-01T11:37:28;13.10;;;2.40;;
19810;SDS011;10065;49.632;8.346;2023-02-01T11:39:59;10.67;;;2.30;;
19810;SDS011;10065;49.632;8.346;2023-02-01T11:42:29;17.30;;;2.70;;
19810;SDS011;10065;49.632;8.346;2023-02-01T11:45:15;12.37;;;2.77;;
19810;SDS011;10065;49.632;8.346;2023-02-01T11:47:46;9.70;;;2.27;;
19810;SDS011;10065;49.632;8.346;2023-02-01T11:50:19;12.00;;;2.13;;
19810;SDS011;10065;49.632;8.346;2023-02-01T11:53:00;12.70;;;2.63;;
19810;SDS011;10065;49.632;8.346;2023-02-01T11:55:47;11.27;;;2.00;;
19810;SDS011;10065;49.632;8.346;2023-02-01T11:58:39;12.53;;;2.83;;
19810;SDS011;10065;49.632;8.346;2023-02-01T12:01:49;11.37;;;2.10;;
19810;SDS011;10065;49.632;8.346;2023-02-01T12:04:46;11.87;;;2.73;;
19810;SDS011;10065;49.632;8.346;2023-02-01T12:07:29;12.90;;;2.70;;
19810;SDS011;10065;49.632;8.346;2023-02-01T12:10:09;12.93;;;2.93;;
19810;SDS011;10065;49.632;8.346;2023-02-01T12:12:50;14.40;;;2.37;;
19810;SDS011;10065;49.632;8.346;2023-02-01T12:15:31;5.83;;;1.40;;
19810;SDS011;10065;49.632;8.346;2023-02-01T12:21:28;11.37;;;2.13;;
19810;SDS011;10065;49.632;8.346;2023-02-01T12:24:16;12.07;;;2.53;;
19810;SDS011;10065;49.632;8.346;2023-02-01T12:27:00;16.33;;;2.57;;
19810;SDS011;10065;49.632;8.346;2023-02-01T12:32:48;10.43;;;2.10;;
19810;SDS011;10065;49.632;8.346;2023-02-01T12:35:38;19.57;;;2.93;;
19810;SDS011;10065;49.632;8.346;2023-02-01T12:38:23;14.07;;;2.60;;
19810;SDS011;10065;49.632;8.346;2023-02-01T12:41:07;11.67;;;1.97;;
19810;SDS011;10065;49.632;8.346;2023-02-01T12:43:47;7.50;;;1.80;;
19810;SDS011;10065;49.632;8.346;2023-02-01T12:46:20;14.23;;;2.10;;
19810;SDS011;10065;49.632;8.346;2023-02-01T12:48:53;13.77;;;2.03;;
19810;SDS011;10065;49.632;8.346;2023-02-01T12:51:26;12.53;;;2.20;;
19810;SDS011;10065;49.632;8.346;2023-02-01T12:54:00;12.10;;;2.00;;
19810;SDS011;10065;49.632;8.346;2023-02-01T12:56:32;11.07;;;2.10;;
19810;SDS011;10065;49.632;8.346;2023-02-01T12:59:05;10.77;;;2.50;;
19810;SDS011;10065;49.632;8.346;2023-02-01T13:01:46;13.40;;;2.70;;
19810;SDS011;10065;49.632;8.346;2023-02-01T13:04:25;12.40;;;2.30;;
19810;SDS011;10065;49.632;8.346;2023-02-01T13:06:59;9.23;;;1.90;;
19810;SDS011;10065;49.632;8.346;2023-02-01T13:09:33;14.83;;;1.70;;
19810;SDS011;10065;49.632;8.346;2023-02-01T13:12:11;10.00;;;2.40;;
19810;SDS011;10065;49.632;8.346;2023-02-01T13:14:44;10.57;;;1.60;;
19810;SDS011;10065;49.632;8.346;2023-02-01T13:17:18;10.53;;;1.97;;
19810;SDS011;10065;49.632;8.346;2023-02-01T13:19:50;13.67;;;2.80;;
19810;SDS011;10065;49.632;8.346;2023-02-01T13:22:23;11.27;;;2.23;;
19810;SDS011;10065;49.632;8.346;2023-02-01T13:24:58;10.37;;;2.23;;
19810;SDS011;10065;49.632;8.346;2023-02-01T13:27:29;11.80;;;2.30;;
19810;SDS011;10065;49.632;8.346;2023-02-01T13:30:06;8.83;;;2.30;;
19810;SDS011;10065;49.632;8.346;2023-02-01T13:36:09;10.37;;;2.00;;
19810;SDS011;10065;49.632;8.346;2023-02-01T13:39:06;9.67;;;1.97;;
19810;SDS011;10065;49.632;8.346;2023-02-01T13:42:00;11.17;;;2.53;;
19810;SDS011;10065;49.632;8.346;2023-02-01T13:44:30;9.30;;;1.97;;
19810;SDS011;10065;49.632;8.346;2023-02-01T13:47:02;16.07;;;2.80;;
19810;SDS011;10065;49.632;8.346;2023-02-01T13:49:37;13.47;;;2.33;;
19810;SDS011;10065;49.632;8.346;2023-02-01T13:52:17;13.93;;;2.80;;
19810;SDS011;10065;49.632;8.346;2023-02-01T13:58:00;11.73;;;2.63;;
19810;SDS011;10065;49.632;8.346;2023-02-01T14:00:32;8.77;;;2.10;;
19810;SDS011;10065;49.632;8.346;2023-02-01T14:11:57;13.07;;;2.10;;
19810;SDS011;10065;49.632;8.346;2023-02-01T14:14:49;11.83;;;2.30;;
19810;SDS011;10065;49.632;8.346;2023-02-01T14:23:18;13.77;;;2.50;;
19810;SDS011;10065;49.632;8.346;2023-02-01T14:25:59;10.43;;;2.23;;
19810;SDS011;10065;49.632;8.346;2023-02-01T14:28:34;11.30;;;1.67;;
19810;SDS011;10065;49.632;8.346;2023-02-01T14:31:15;10.23;;;1.60;;
19810;SDS011;10065;49.632;8.346;2023-02-01T14:33:58;11.00;;;1.70;;
19810;SDS011;10065;49.632;8.346;2023-02-01T14:36:38;12.67;;;2.07;;
19810;SDS011;10065;49.632;8.346;2023-02-01T14:42:00;11.67;;;2.63;;
19810;SDS011;10065;49.632;8.346;2023-02-01T14:44:32;13.60;;;1.57;;
19810;SDS011;10065;49.632;8.346;2023-02-01T14:47:25;10.80;;;1.97;;
19810;SDS011;10065;49.632;8.346;2023-02-01T14:53:11;16.33;;;2.17;;
19810;SDS011;10065;49.632;8.346;2023-02-01T14:55:46;15.83;;;2.17;;
19810;SDS011;10065;49.632;8.346;2023-02-01T14:58:18;9.47;;;1.40;;
19810;SDS011;10065;49.632;8.346;2023-02-01T15:00:51;8.93;;;1.63;;
19810;SDS011;10065;49.632;8.346;2023-02-01T15:06:20;8.70;;;2.00;;
19810;SDS011;10065;49.632;8.346;2023-02-01T15:08:54;11.63;;;1.93;;
19810;SDS011;10065;49.632;8.346;2023-02-01T15:11:24;9.97;;;2.07;;
19810;SDS011;10065;49.632;8.346;2023-02-01T15:13:52;8.63;;;2.30;;
19810;SDS011;10065;49.632;8.346;2023-02-01T15:16:23;15.00;;;2.20;;
19810;SDS011;10065;49.632;8.346;2023-02-01T15:21:42;10.23;;;1.87;;
19810;SDS011;10065;49.632;8.346;2023-02-01T15:24:14;11.97;;;2.10;;
19810;SDS011;10065;49.632;8.346;2023-02-01T15:26:46;9.23;;;1.73;;
19810;SDS011;10065;49.632;8.346;2023-02-01T15:29:14;15.07;;;2.47;;
19810;SDS011;10065;49.632;8.346;2023-02-01T15:31:43;13.90;;;2.03;;
19810;SDS011;10065;49.632;8.346;2023-02-01T15:34:14;11.90;;;2.23;;
19810;SDS011;10065;49.632;8.346;2023-02-01T15:36:43;14.37;;;2.30;;
19810;SDS011;10065;49.632;8.346;2023-02-01T15:39:28;9.63;;;1.83;;
19810;SDS011;10065;49.632;8.346;2023-02-01T15:41:59;10.97;;;1.97;;
19810;SDS011;10065;49.632;8.346;2023-02-01T15:44:32;12.07;;;2.10;;
19810;SDS011;10065;49.632;8.346;2023-02-01T15:47:05;10.70;;;2.87;;
19810;SDS011;10065;49.632;8.346;2023-02-01T15:49:40;7.63;;;2.17;;
19810;SDS011;10065;49.632;8.346;2023-02-01T15:52:14;9.03;;;2.03;;
19810;SDS011;10065;49.632;8.346;2023-02-01T15:54:50;9.43;;;1.90;;
19810;SDS011;10065;49.632;8.346;2023-02-01T15:57:20;11.30;;;2.30;;
19810;SDS011;10065;49.632;8.346;2023-02-01T15:59:56;17.13;;;2.70;;